createdAt,value
2022-10-05T00:00:27.158Z,9.02
2022-10-05T00:04:39.301Z,8.13
2022-10-05T00:08:17.290Z,8.20
2022-10-05T00:12:27.208Z,7.93
2022-10-05T00:16:24.252Z,7.88
2022-10-05T00:20:24.168Z,8.15
2022-10-05T00:24:04.234Z,7.37
2022-10-05T00:28:04.198Z,7.30
2022-10-05T00:31:56.211Z,8.18
2022-10-05T00:35:42.171Z,7.95
2022-10-05T00:39:27.311Z,7.87
2022-10-05T00:43:28.180Z,7.17
2022-10-05T00:47:35.166Z,7.28
2022-10-05T00:51:35.204Z,7.13
2022-10-05T00:55:44.273Z,7.30
2022-10-05T01:00:03.172Z,7.43
2022-10-05T01:04:13.192Z,8.05
2022-10-05T01:08:08.241Z,7.88
2022-10-05T01:12:04.258Z,7.50
2022-10-05T01:15:56.214Z,7.55
2022-10-05T01:20:13.197Z,8.20
2022-10-05T01:24:06.223Z,7.97
2022-10-05T01:28:13.340Z,8.33
2022-10-05T01:32:21.232Z,8.00
2022-10-05T01:36:27.198Z,6.95
2022-10-05T01:41:01.281Z,8.70
2022-10-05T01:44:57.250Z,7.20
2022-10-05T01:49:08.238Z,7.07
2022-10-05T01:53:19.224Z,7.07
2022-10-05T01:57:41.231Z,5.77
2022-10-05T02:01:52.271Z,6.28
2022-10-05T02:06:11.197Z,6.15
2022-10-05T02:10:19.218Z,6.53
2022-10-05T02:14:19.237Z,6.20
2022-10-05T02:18:09.234Z,5.22
2022-10-05T02:22:14.257Z,4.95
2022-10-05T02:26:10.227Z,5.43
2022-10-05T02:29:50.885Z,6.13
2022-10-05T02:33:44.236Z,5.22
2022-10-05T02:37:35.265Z,5.00
2022-10-05T02:41:52.272Z,5.70
2022-10-05T02:45:46.132Z,5.40
2022-10-05T02:50:07.214Z,6.53
2022-10-05T02:54:01.219Z,5.93
2022-10-05T02:58:00.240Z,5.03
2022-10-05T03:01:53.274Z,5.78
2022-10-05T03:05:50.394Z,5.45
2022-10-05T03:09:40.238Z,5.00
2022-10-05T03:13:47.247Z,5.60
2022-10-05T03:17:37.391Z,5.00
2022-10-05T03:21:25.429Z,5.30
2022-10-05T03:25:44.235Z,4.77
2022-10-05T03:29:54.253Z,5.30
2022-10-05T03:34:08.257Z,6.15
2022-10-05T03:38:09.263Z,5.68
2022-10-05T03:41:53.686Z,5.93
2022-10-05T03:46:14.293Z,5.43
2022-10-05T03:50:29.320Z,6.00
2022-10-05T03:54:37.293Z,6.40
2022-10-05T03:58:49.250Z,5.87
2022-10-05T04:02:52.376Z,4.80
2022-10-05T04:06:42.330Z,6.28
2022-10-05T04:10:40.289Z,5.38
2022-10-05T04:14:50.269Z,5.43
2022-10-05T04:18:43.402Z,4.70
2022-10-05T04:22:32.256Z,5.78
2022-10-05T04:26:31.257Z,5.35
2022-10-05T04:30:25.310Z,5.07
2022-10-05T04:34:27.272Z,5.38
2022-10-05T04:38:47.273Z,5.25
2022-10-05T04:42:45.317Z,5.73
2022-10-05T04:47:10.289Z,5.20
2022-10-05T04:51:07.275Z,5.50
2022-10-05T04:55:11.332Z,6.10
2022-10-05T04:59:14.290Z,5.60
2022-10-05T05:03:24.374Z,5.13
2022-10-05T05:07:19.270Z,6.30
2022-10-05T05:11:16.319Z,5.80
2022-10-05T05:15:23.309Z,3.67
2022-10-05T05:19:24.276Z,5.03
2022-10-05T05:23:34.301Z,5.85
2022-10-05T05:27:39.394Z,4.60
2022-10-05T05:31:39.360Z,4.77
2022-10-05T05:35:51.313Z,4.77
2022-10-05T05:39:46.309Z,5.22
2022-10-05T05:43:59.297Z,4.43
2022-10-05T05:47:41.281Z,3.83
2022-10-05T05:51:57.334Z,3.20
2022-10-05T05:55:53.311Z,4.38
2022-10-05T05:59:44.344Z,3.45
2022-10-05T06:03:51.353Z,4.27
2022-10-05T06:07:44.369Z,4.30
2022-10-05T06:11:48.326Z,3.65
2022-10-05T06:15:51.317Z,3.67
2022-10-05T06:19:37.316Z,3.43
2022-10-05T06:23:51.319Z,3.77
2022-10-05T06:27:39.386Z,3.05
2022-10-05T06:32:19.339Z,3.33
2022-10-05T06:36:30.335Z,2.92
2022-10-05T06:40:22.345Z,3.23
2022-10-05T06:44:44.344Z,3.25
2022-10-05T06:48:44.353Z,3.47
2022-10-05T06:52:59.616Z,3.53
2022-10-05T06:56:59.330Z,2.90
2022-10-05T07:00:50.364Z,2.13
2022-10-05T07:05:03.312Z,2.30
2022-10-05T07:09:25.340Z,2.53
2022-10-05T07:13:46.438Z,2.53
2022-10-05T07:18:04.345Z,2.53
2022-10-05T07:22:33.263Z,2.33
2022-10-05T07:26:38.392Z,2.57
2022-10-05T07:30:31.404Z,2.83
2022-10-05T07:34:33.403Z,2.35
2022-10-05T07:38:43.368Z,2.47
2022-10-05T07:42:52.019Z,2.10
2022-10-05T07:46:45.648Z,2.50
2022-10-05T07:50:52.361Z,2.20
2022-10-05T07:55:03.356Z,2.22
2022-10-05T07:59:01.363Z,2.07
2022-10-05T08:03:06.443Z,2.40
2022-10-05T08:06:58.435Z,1.45
2022-10-05T08:11:07.385Z,2.37
2022-10-05T08:15:06.417Z,1.63
2022-10-05T08:19:36.394Z,1.45
2022-10-05T08:23:36.392Z,1.95
2022-10-05T08:28:18.467Z,2.00
2022-10-05T08:32:24.397Z,1.80
2022-10-05T08:36:20.392Z,1.65
2022-10-05T08:40:33.383Z,1.90
2022-10-05T08:44:59.432Z,2.38
2022-10-05T08:49:18.444Z,2.10
2022-10-05T08:53:47.414Z,1.50
2022-10-05T08:57:42.411Z,2.08
2022-10-05T09:01:30.445Z,1.77
2022-10-05T09:05:26.474Z,1.53
2022-10-05T09:09:29.414Z,1.88
2022-10-05T09:13:55.423Z,2.13
2022-10-05T09:18:02.412Z,1.75
2022-10-05T09:22:36.658Z,1.70
2022-10-05T09:26:45.760Z,1.55
2022-10-05T09:30:55.442Z,1.20
2022-10-05T09:35:03.395Z,1.70
2022-10-05T09:39:07.415Z,1.10
2022-10-05T09:43:06.418Z,1.30
2022-10-05T09:46:58.400Z,1.40
2022-10-05T09:51:07.413Z,1.60
2022-10-05T09:55:03.420Z,1.40
2022-10-05T09:59:17.483Z,1.70
2022-10-05T10:03:15.580Z,1.67
2022-10-05T10:07:15.417Z,1.65
2022-10-05T10:11:45.683Z,1.50
2022-10-05T10:16:22.495Z,1.57
2022-10-05T10:20:52.438Z,1.38
2022-10-05T10:24:37.427Z,1.40
2022-10-05T10:29:05.435Z,1.88
2022-10-05T10:33:08.426Z,1.43
2022-10-05T10:37:37.431Z,1.40
2022-10-05T10:41:25.484Z,1.50
2022-10-05T10:45:55.433Z,1.50
2022-10-05T10:50:29.455Z,1.80
2022-10-05T10:54:59.505Z,1.27
2022-10-05T10:59:00.693Z,1.23
2022-10-05T11:02:54.527Z,1.58
2022-10-05T11:06:39.688Z,1.50
2022-10-05T11:10:43.422Z,1.63
2022-10-05T11:15:16.446Z,1.20
2022-10-05T11:19:35.170Z,1.23
2022-10-05T11:23:54.457Z,1.77
2022-10-05T11:28:04.523Z,1.38
2022-10-05T11:32:08.465Z,1.50
2022-10-05T11:36:34.450Z,1.50
2022-10-05T11:40:44.538Z,1.73
2022-10-05T11:45:06.475Z,1.70
2022-10-05T11:49:10.465Z,1.40
2022-10-05T11:53:34.685Z,1.43
2022-10-05T11:57:17.655Z,1.33
2022-10-05T12:01:33.501Z,1.67
2022-10-05T12:05:32.501Z,1.85
2022-10-05T12:10:21.545Z,1.90
2022-10-05T12:14:27.552Z,1.77
2022-10-05T12:18:14.748Z,1.23
2022-10-05T12:22:22.529Z,1.33
2022-10-05T12:26:17.504Z,1.90
2022-10-05T12:30:26.468Z,1.60
2022-10-05T12:34:33.759Z,1.33
2022-10-05T12:38:37.498Z,1.17
2022-10-05T12:42:40.886Z,1.30
2022-10-05T12:47:23.501Z,1.37
2022-10-05T12:51:28.508Z,1.20
2022-10-05T12:55:26.222Z,1.60
2022-10-05T12:59:29.526Z,1.48
2022-10-05T13:03:42.514Z,1.40
2022-10-05T13:07:34.522Z,1.30
2022-10-05T13:11:43.522Z,1.35
2022-10-05T13:15:32.552Z,2.05
2022-10-05T13:19:27.599Z,1.63
2022-10-05T13:23:18.598Z,1.60
2022-10-05T13:27:23.588Z,1.43
2022-10-05T13:31:28.105Z,2.08
2022-10-05T13:35:28.530Z,1.48
2022-10-05T13:39:21.543Z,1.30
2022-10-05T13:43:19.535Z,1.70
2022-10-05T13:47:34.550Z,1.33
2022-10-05T13:51:34.577Z,1.40
2022-10-05T13:55:19.523Z,1.70
2022-10-05T13:59:31.509Z,1.50
2022-10-05T14:03:32.423Z,1.58
2022-10-05T14:07:40.540Z,1.75
2022-10-05T14:11:43.543Z,1.95
2022-10-05T14:15:41.240Z,1.90
2022-10-05T14:19:29.688Z,1.60
2022-10-05T14:23:30.573Z,1.63
2022-10-05T14:27:46.551Z,1.63
2022-10-05T14:31:38.604Z,1.83
2022-10-05T14:35:32.596Z,1.63
2022-10-05T14:39:13.157Z,1.30
2022-10-05T14:43:30.582Z,1.50
2022-10-05T14:47:29.611Z,1.90
2022-10-05T14:51:15.599Z,2.33
2022-10-05T14:55:32.633Z,1.37
2022-10-05T14:59:46.560Z,1.60
2022-10-05T15:04:00.571Z,1.70
2022-10-05T15:07:50.683Z,2.03
2022-10-05T15:12:03.575Z,1.80
2022-10-05T15:16:05.006Z,1.77
2022-10-05T15:19:56.630Z,1.55
2022-10-05T15:24:00.582Z,1.65
2022-10-05T15:27:55.661Z,1.70
2022-10-05T15:31:39.348Z,2.00
2022-10-05T15:35:52.599Z,1.70
2022-10-05T15:39:41.582Z,2.17
2022-10-05T15:43:36.593Z,2.70
2022-10-05T15:47:52.714Z,2.63
2022-10-05T15:51:58.604Z,2.53
2022-10-05T15:55:55.578Z,2.47
2022-10-05T15:59:57.620Z,2.90
2022-10-05T16:04:10.288Z,2.15
2022-10-05T16:08:24.908Z,2.63
2022-10-05T16:12:19.600Z,2.10
2022-10-05T16:16:24.719Z,1.93
2022-10-05T16:20:38.611Z,2.53
2022-10-05T16:25:16.607Z,2.72
2022-10-05T16:29:35.804Z,2.85
2022-10-05T16:33:26.685Z,4.10
2022-10-05T16:37:30.606Z,4.87
2022-10-05T16:41:41.681Z,5.75
2022-10-05T16:46:02.664Z,3.60
2022-10-05T16:50:07.621Z,3.95
2022-10-05T16:54:30.635Z,3.17
2022-10-05T16:58:33.650Z,2.20
2022-10-05T17:02:34.665Z,3.33
2022-10-05T17:06:38.647Z,3.63
2022-10-05T17:10:42.623Z,7.47
2022-10-05T17:15:00.716Z,6.93
2022-10-05T17:19:16.662Z,7.28
2022-10-05T17:23:09.036Z,5.80
2022-10-05T17:27:31.764Z,5.07
2022-10-05T17:31:30.757Z,3.90
2022-10-05T17:35:25.644Z,3.72
2022-10-05T17:39:25.736Z,3.42
2022-10-05T17:43:32.613Z,3.33
2022-10-05T17:47:24.640Z,2.97
2022-10-05T17:51:28.647Z,2.92
2022-10-05T17:55:55.664Z,2.95
2022-10-05T17:59:52.674Z,3.07
2022-10-05T18:03:47.692Z,3.33
2022-10-05T18:07:32.666Z,2.75
2022-10-05T18:11:35.892Z,2.90
2022-10-05T18:15:30.694Z,2.60
2022-10-05T18:19:27.693Z,2.70
2022-10-05T18:23:32.683Z,2.55
2022-10-05T18:27:40.672Z,2.97
2022-10-05T18:31:51.711Z,2.70
2022-10-05T18:35:58.717Z,2.43
2022-10-05T18:40:24.762Z,2.47
2022-10-05T18:44:35.726Z,2.75
2022-10-05T18:48:42.679Z,3.70
2022-10-05T18:53:16.673Z,2.90
2022-10-05T18:57:06.700Z,2.78
2022-10-05T19:01:20.832Z,2.50
2022-10-05T19:05:53.932Z,3.50
2022-10-05T19:09:56.731Z,2.60
2022-10-05T19:13:57.666Z,2.80
2022-10-05T19:17:45.758Z,2.90
2022-10-05T19:22:02.822Z,2.73
2022-10-05T19:25:53.677Z,3.10
2022-10-05T19:30:09.692Z,2.63
2022-10-05T19:34:11.847Z,2.92
2022-10-05T19:38:15.314Z,2.53
2022-10-05T19:42:25.712Z,2.60
2022-10-05T19:46:38.022Z,2.25
2022-10-05T19:50:33.852Z,2.70
2022-10-05T19:54:36.715Z,3.17
2022-10-05T19:58:39.677Z,2.70
2022-10-05T20:02:37.514Z,2.75
2022-10-05T20:06:19.939Z,2.75
2022-10-05T20:10:26.699Z,3.00
2022-10-05T20:14:20.713Z,2.60
2022-10-05T20:19:02.718Z,2.83
2022-10-05T20:22:47.785Z,3.00
2022-10-05T20:27:13.828Z,3.23
2022-10-05T20:31:07.794Z,2.67
2022-10-05T20:34:54.745Z,3.47
2022-10-05T20:38:41.326Z,3.20
2022-10-05T20:42:27.764Z,2.97
2022-10-05T20:46:19.912Z,2.97
2022-10-05T20:50:04.742Z,3.13
2022-10-05T20:53:49.878Z,2.50
2022-10-05T20:57:34.779Z,3.13
2022-10-05T21:01:26.835Z,2.83
2022-10-05T21:05:19.011Z,2.60
2022-10-05T21:09:03.868Z,3.20
2022-10-05T21:12:48.791Z,2.87
2022-10-05T21:16:44.796Z,3.33
2022-10-05T21:20:23.027Z,2.92
2022-10-05T21:24:14.856Z,3.30
2022-10-05T21:28:00.816Z,3.27
2022-10-05T21:31:45.872Z,2.97
2022-10-05T21:35:30.803Z,2.85
2022-10-05T21:39:22.758Z,2.83
2022-10-05T21:43:07.751Z,3.17
2022-10-05T21:46:54.335Z,3.30
2022-10-05T21:50:40.810Z,3.97
2022-10-05T21:54:28.601Z,3.17
2022-10-05T21:58:13.813Z,3.43
2022-10-05T22:02:05.766Z,3.55
2022-10-05T22:05:44.166Z,4.03
2022-10-05T22:09:38.918Z,2.90
2022-10-05T22:13:17.656Z,3.37
2022-10-05T22:17:09.781Z,3.75
2022-10-05T22:20:54.802Z,2.58
2022-10-05T22:24:46.808Z,3.17
2022-10-05T22:28:25.468Z,3.70
2022-10-05T22:32:17.794Z,3.00
2022-10-05T22:36:05.771Z,3.28
2022-10-05T22:39:50.865Z,3.70
2022-10-05T22:43:35.797Z,3.97
2022-10-05T22:47:27.766Z,3.75
2022-10-05T22:51:06.848Z,3.60
2022-10-05T22:54:58.786Z,2.97
2022-10-05T22:58:43.803Z,3.50
2022-10-05T23:02:28.900Z,3.30
2022-10-05T23:06:16.776Z,3.50
2022-10-05T23:10:08.801Z,3.50
2022-10-05T23:13:47.010Z,3.10
2022-10-05T23:17:39.818Z,3.08
2022-10-05T23:21:26.789Z,3.78
2022-10-05T23:25:21.826Z,3.00
2022-10-05T23:29:00.143Z,3.10
2022-10-05T23:32:56.799Z,3.60
2022-10-05T23:36:42.803Z,3.03
2022-10-05T23:40:28.054Z,2.93
2022-10-05T23:44:12.812Z,4.43
2022-10-05T23:48:04.793Z,3.88
2022-10-05T23:52:03.837Z,4.47
2022-10-05T23:56:00.822Z,3.40
2022-10-05T23:59:45.801Z,3.65
